createdAt,value
2019-02-15T00:02:14.487Z,76.29
2019-02-15T00:04:43.078Z,76.10
2019-02-15T00:07:12.189Z,76.41
2019-02-15T00:09:40.777Z,76.36
2019-02-15T00:12:09.492Z,76.37
2019-02-15T00:14:49.004Z,76.69
2019-02-15T00:17:25.329Z,76.32
2019-02-15T00:19:55.492Z,75.93
2019-02-15T00:22:24.080Z,76.26
2019-02-15T00:24:52.708Z,76.75
2019-02-15T00:27:21.302Z,76.73
2019-02-15T00:29:49.883Z,77.65
2019-02-15T00:32:18.474Z,77.31
2019-02-15T00:34:47.062Z,76.88
2019-02-15T00:37:15.655Z,77.08
2019-02-15T00:39:44.244Z,77.88
2019-02-15T00:42:12.898Z,78.11
2019-02-15T00:44:41.603Z,77.94
2019-02-15T00:47:15.489Z,77.73
2019-02-15T00:49:45.575Z,77.55
2019-02-15T00:52:15.738Z,77.51
2019-02-15T00:54:49.032Z,78.34
2019-02-15T00:57:19.190Z,77.93
2019-02-15T00:59:55.409Z,78.40
2019-02-15T01:02:28.316Z,78.51
2019-02-15T01:05:16.948Z,78.22
2019-02-15T01:07:50.105Z,77.87
2019-02-15T01:10:38.749Z,77.82
2019-02-15T01:13:10.090Z,78.42
2019-02-15T01:15:38.652Z,79.13
2019-02-15T01:18:07.831Z,79.24
2019-02-15T01:20:36.530Z,78.40
2019-02-15T01:23:05.219Z,78.34
2019-02-15T01:25:35.372Z,77.98
2019-02-15T01:28:08.339Z,77.50
2019-02-15T01:30:44.592Z,77.80
2019-02-15T01:33:29.684Z,77.12
2019-02-15T01:36:11.769Z,76.36
2019-02-15T01:38:50.738Z,76.79
2019-02-15T01:41:20.905Z,76.76
2019-02-15T01:43:53.852Z,76.48
2019-02-15T01:46:24.097Z,76.57
2019-02-15T01:48:52.762Z,76.59
2019-02-15T01:51:21.344Z,76.37
2019-02-15T01:53:49.971Z,76.60
2019-02-15T01:56:18.556Z,77.21
2019-02-15T01:58:47.157Z,77.15
2019-02-15T02:01:17.332Z,77.56
2019-02-15T02:03:45.912Z,77.54
2019-02-15T02:06:14.513Z,77.53
2019-02-15T02:08:43.100Z,77.22
2019-02-15T02:11:11.923Z,77.31
2019-02-15T02:13:49.043Z,77.45
2019-02-15T02:16:13.901Z,77.63
2019-02-15T02:18:42.481Z,77.72
2019-02-15T02:21:11.371Z,78.17
2019-02-15T02:23:40.003Z,78.00
2019-02-15T02:26:09.340Z,78.08
2019-02-15T02:28:38.034Z,77.98
2019-02-15T02:31:06.707Z,77.89
2019-02-15T02:33:35.287Z,77.71
2019-02-15T02:36:03.875Z,77.13
2019-02-15T02:38:32.458Z,77.17
2019-02-15T02:41:01.046Z,77.14
2019-02-15T02:43:29.734Z,76.93
2019-02-15T02:45:58.326Z,76.56
2019-02-15T02:48:26.924Z,77.08
2019-02-15T02:50:55.595Z,77.11
2019-02-15T02:53:24.178Z,77.45
2019-02-15T02:55:52.758Z,77.09
2019-02-15T02:58:21.441Z,77.30
2019-02-15T03:00:50.024Z,77.59
2019-02-15T03:03:18.608Z,77.36
2019-02-15T03:05:47.190Z,77.51
2019-02-15T03:08:15.775Z,77.65
2019-02-15T03:10:44.363Z,78.09
2019-02-15T03:13:12.949Z,77.70
2019-02-15T03:15:41.534Z,77.56
2019-02-15T03:18:10.714Z,77.71
2019-02-15T03:20:39.297Z,77.71
2019-02-15T03:23:08.636Z,78.48
2019-02-15T03:25:37.256Z,78.44
2019-02-15T03:28:05.854Z,78.78
2019-02-15T03:30:34.434Z,78.16
2019-02-15T03:33:03.028Z,77.51
2019-02-15T03:35:31.633Z,77.56
2019-02-15T03:38:01.785Z,78.90
2019-02-15T03:40:31.944Z,77.76
2019-02-15T03:43:00.524Z,78.52
2019-02-15T03:45:29.154Z,78.88
2019-02-15T03:47:57.735Z,78.92
2019-02-15T03:50:26.322Z,78.61
2019-02-15T03:52:54.906Z,79.12
2019-02-15T03:55:23.551Z,79.36
2019-02-15T03:57:52.172Z,79.35
2019-02-15T04:00:20.761Z,79.21
2019-02-15T04:02:49.344Z,78.93
2019-02-15T04:05:17.927Z,79.14
2019-02-15T04:07:46.512Z,78.92
2019-02-15T04:10:15.107Z,79.28
2019-02-15T04:12:43.684Z,79.25
2019-02-15T04:15:12.276Z,78.71
2019-02-15T04:17:40.860Z,78.99
2019-02-15T04:20:10.042Z,78.61
2019-02-15T04:22:38.667Z,79.05
2019-02-15T04:25:07.311Z,79.19
2019-02-15T04:27:35.927Z,79.76
2019-02-15T04:30:05.615Z,79.70
2019-02-15T04:32:34.201Z,79.70
2019-02-15T04:35:02.834Z,79.33
2019-02-15T04:37:31.423Z,79.63
2019-02-15T04:39:59.997Z,79.77
2019-02-15T04:42:28.597Z,79.75
2019-02-15T04:44:57.196Z,79.31
2019-02-15T04:47:25.779Z,79.17
2019-02-15T04:49:54.365Z,78.67
2019-02-15T04:52:22.950Z,78.95
2019-02-15T04:54:51.532Z,79.30
2019-02-15T04:57:20.123Z,79.77
2019-02-15T04:59:48.747Z,79.96
2019-02-15T05:02:17.376Z,79.25
2019-02-15T05:04:46.099Z,79.83
2019-02-15T05:07:14.711Z,79.56
2019-02-15T05:09:56.922Z,79.45
2019-02-15T05:12:20.892Z,79.49
2019-02-15T05:14:53.134Z,80.86
2019-02-15T05:17:19.841Z,79.53
2019-02-15T05:19:48.438Z,79.85
2019-02-15T05:22:17.027Z,79.64
2019-02-15T05:24:45.607Z,79.80
2019-02-15T05:27:14.207Z,79.97
2019-02-15T05:29:42.777Z,80.30
2019-02-15T05:32:11.630Z,80.00
2019-02-15T05:34:40.239Z,79.57
2019-02-15T05:37:10.870Z,79.46
2019-02-15T05:39:39.477Z,79.43
2019-02-15T05:42:09.084Z,79.25
2019-02-15T05:44:37.773Z,79.49
2019-02-15T05:47:06.353Z,80.13
2019-02-15T05:49:34.933Z,79.71
2019-02-15T05:52:03.563Z,79.26
2019-02-15T05:54:32.190Z,78.66
2019-02-15T05:57:00.781Z,78.64
2019-02-15T05:59:29.365Z,79.21
2019-02-15T06:01:57.952Z,78.45
2019-02-15T06:04:26.600Z,78.74
2019-02-15T06:06:55.237Z,80.06
2019-02-15T06:09:23.827Z,81.01
2019-02-15T06:11:52.418Z,79.32
2019-02-15T06:14:20.991Z,79.09
2019-02-15T06:16:49.660Z,79.67
2019-02-15T06:19:18.255Z,79.74
2019-02-15T06:21:46.851Z,79.20
2019-02-15T06:24:15.959Z,80.50
2019-02-15T06:26:44.534Z,80.09
2019-02-15T06:29:13.200Z,80.06
2019-02-15T06:31:41.785Z,79.74
2019-02-15T06:34:11.160Z,80.21
2019-02-15T06:36:41.694Z,80.59
2019-02-15T06:39:10.497Z,80.45
2019-02-15T06:41:39.085Z,81.66
2019-02-15T06:44:08.107Z,81.62
2019-02-15T06:46:36.727Z,81.65
2019-02-15T06:49:05.331Z,80.16
2019-02-15T06:51:33.900Z,80.86
2019-02-15T06:54:02.487Z,80.01
2019-02-15T06:56:31.082Z,80.35
2019-02-15T06:59:10.178Z,80.07
2019-02-15T07:01:46.627Z,80.13
2019-02-15T07:04:16.810Z,79.86
2019-02-15T07:06:45.399Z,80.05
2019-02-15T07:09:15.234Z,80.33
2019-02-15T07:11:43.908Z,80.31
2019-02-15T07:14:12.491Z,80.33
2019-02-15T07:16:41.073Z,80.14
2019-02-15T07:19:10.108Z,80.06
2019-02-15T07:21:38.691Z,79.72
2019-02-15T07:24:07.916Z,80.02
2019-02-15T07:26:36.532Z,79.84
2019-02-15T07:29:05.120Z,78.57
2019-02-15T07:31:33.697Z,79.76
2019-02-15T07:34:02.288Z,79.96
2019-02-15T07:36:30.875Z,80.97
2019-02-15T07:38:59.579Z,80.78
2019-02-15T07:41:28.170Z,80.05
2019-02-15T07:43:56.774Z,79.76
2019-02-15T07:46:25.468Z,78.87
2019-02-15T07:48:54.134Z,78.51
2019-02-15T07:51:22.720Z,78.45
2019-02-15T07:53:51.311Z,78.28
2019-02-15T07:56:19.932Z,76.74
2019-02-15T07:58:48.521Z,77.22
2019-02-15T08:01:17.119Z,76.66
2019-02-15T08:03:45.719Z,76.71
2019-02-15T08:06:14.295Z,76.92
2019-02-15T08:08:42.871Z,76.85
2019-02-15T08:11:11.613Z,77.79
2019-02-15T08:13:40.196Z,77.51
2019-02-15T08:16:09.736Z,78.32
2019-02-15T08:18:38.321Z,77.19
2019-02-15T08:21:07.195Z,77.70
2019-02-15T08:23:35.780Z,77.37
2019-02-15T08:26:04.387Z,77.67
2019-02-15T08:28:32.985Z,78.11
2019-02-15T08:31:01.568Z,77.87
2019-02-15T08:33:30.148Z,78.56
2019-02-15T08:35:58.731Z,78.89
2019-02-15T08:38:27.622Z,77.63
2019-02-15T08:40:56.393Z,77.79
2019-02-15T08:43:25.076Z,77.40
2019-02-15T08:46:00.588Z,78.85
2019-02-15T08:48:24.050Z,78.17
2019-02-15T08:50:52.638Z,77.12
2019-02-15T08:53:21.248Z,76.71
2019-02-15T08:55:49.850Z,76.41
2019-02-15T08:58:18.447Z,76.08
2019-02-15T09:00:47.037Z,75.96
2019-02-15T09:03:15.622Z,75.64
2019-02-15T09:05:44.206Z,75.89
2019-02-15T09:08:12.799Z,76.46
2019-02-15T09:10:41.382Z,76.45
2019-02-15T09:13:11.058Z,76.64
2019-02-15T09:15:39.709Z,76.38
2019-02-15T09:18:09.218Z,74.63
2019-02-15T09:20:37.801Z,73.71
2019-02-15T09:23:06.385Z,73.01
2019-02-15T09:25:35.101Z,72.82
2019-02-15T09:28:23.360Z,72.55
2019-02-15T09:30:52.545Z,71.49
2019-02-15T09:33:21.137Z,71.13
2019-02-15T09:35:49.718Z,70.99
2019-02-15T09:38:18.345Z,70.77
2019-02-15T09:40:46.963Z,71.37
2019-02-15T09:43:15.552Z,71.09
2019-02-15T09:45:44.527Z,70.99
2019-02-15T09:48:13.107Z,70.65
2019-02-15T09:50:41.692Z,69.83
2019-02-15T09:53:11.023Z,68.83
2019-02-15T09:55:39.620Z,69.71
2019-02-15T09:58:08.734Z,70.15
2019-02-15T10:00:37.316Z,69.86
2019-02-15T10:03:05.903Z,69.69
2019-02-15T10:05:34.482Z,68.51
2019-02-15T10:08:03.055Z,69.83
2019-02-15T10:10:31.645Z,69.10
2019-02-15T10:13:00.234Z,68.93
2019-02-15T10:15:28.818Z,68.85
2019-02-15T10:17:57.398Z,68.70
2019-02-15T10:20:26.039Z,67.77
2019-02-15T10:22:54.615Z,68.70
2019-02-15T10:25:23.244Z,68.75
2019-02-15T10:27:51.842Z,67.19
2019-02-15T10:30:20.424Z,68.25
2019-02-15T10:32:49.006Z,66.86
2019-02-15T10:35:17.588Z,66.50
2019-02-15T10:37:46.171Z,65.22
2019-02-15T10:40:14.753Z,64.83
2019-02-15T10:42:43.375Z,65.79
2019-02-15T10:45:14.521Z,63.62
2019-02-15T10:47:43.166Z,64.46
2019-02-15T10:50:12.129Z,65.50
2019-02-15T10:52:40.717Z,63.44
2019-02-15T10:55:10.272Z,62.20
2019-02-15T10:57:38.852Z,62.48
2019-02-15T11:00:14.766Z,62.48
2019-02-15T11:02:43.415Z,62.45
2019-02-15T11:05:13.010Z,62.92
2019-02-15T11:07:41.599Z,60.69
2019-02-15T11:10:10.407Z,61.48
2019-02-15T11:12:38.994Z,60.75
2019-02-15T11:15:10.620Z,61.64
2019-02-15T11:17:39.203Z,61.63
2019-02-15T11:20:10.960Z,60.15
2019-02-15T11:22:39.578Z,60.41
2019-02-15T11:25:10.812Z,59.89
2019-02-15T11:27:39.404Z,60.32
2019-02-15T11:30:13.282Z,59.63
2019-02-15T11:32:41.868Z,58.94
2019-02-15T11:35:14.293Z,60.75
2019-02-15T11:37:42.888Z,60.02
2019-02-15T11:40:13.797Z,59.73
2019-02-15T11:42:42.385Z,59.25
2019-02-15T11:45:14.805Z,58.77
2019-02-15T11:47:43.441Z,59.19
2019-02-15T11:50:13.970Z,58.38
2019-02-15T11:52:42.555Z,58.28
2019-02-15T11:55:11.590Z,57.80
2019-02-15T11:57:40.168Z,58.55
2019-02-15T12:00:15.315Z,58.16
2019-02-15T12:02:43.905Z,57.27
2019-02-15T12:05:12.674Z,57.46
2019-02-15T12:07:41.267Z,58.04
2019-02-15T12:10:11.284Z,58.87
2019-02-15T12:12:39.869Z,58.94
2019-02-15T12:15:10.158Z,57.53
2019-02-15T12:17:38.750Z,56.47
2019-02-15T12:20:11.804Z,58.62
2019-02-15T12:22:40.397Z,56.73
2019-02-15T12:25:10.111Z,57.07
2019-02-15T12:27:38.710Z,56.70
2019-02-15T12:30:10.297Z,56.62
2019-02-15T12:32:38.886Z,56.69
2019-02-15T12:35:08.673Z,56.29
2019-02-15T12:37:37.258Z,58.11
2019-02-15T12:40:07.947Z,55.30
2019-02-15T12:42:36.540Z,56.07
2019-02-15T12:45:10.344Z,55.16
2019-02-15T12:47:38.928Z,55.58
2019-02-15T12:50:13.426Z,56.59
2019-02-15T12:52:42.099Z,54.10
2019-02-15T12:55:10.992Z,55.17
2019-02-15T12:57:39.587Z,55.49
2019-02-15T13:00:15.806Z,56.08
2019-02-15T13:02:44.400Z,55.48
2019-02-15T13:05:13.501Z,57.73
2019-02-15T13:07:42.090Z,55.16
2019-02-15T13:10:22.852Z,55.32
2019-02-15T13:12:51.438Z,55.06
2019-02-15T13:15:20.066Z,54.32
2019-02-15T13:17:48.721Z,55.82
2019-02-15T13:20:17.297Z,54.85
2019-02-15T13:22:45.897Z,54.53
2019-02-15T13:25:14.488Z,52.98
2019-02-15T13:27:43.122Z,54.31
2019-02-15T13:30:15.829Z,53.71
2019-02-15T13:32:44.440Z,55.14
2019-02-15T13:35:18.966Z,53.40
2019-02-15T13:37:47.563Z,54.14
2019-02-15T13:40:16.175Z,52.26
2019-02-15T13:42:44.772Z,51.47
2019-02-15T13:45:13.681Z,49.99
2019-02-15T13:47:42.279Z,47.07
2019-02-15T13:50:13.184Z,48.16
2019-02-15T13:52:41.775Z,45.51
2019-02-15T13:55:11.430Z,45.05
2019-02-15T13:57:40.062Z,44.83
2019-02-15T14:00:13.467Z,44.61
2019-02-15T14:02:42.046Z,43.58
2019-02-15T14:05:11.963Z,43.33
2019-02-15T14:07:40.559Z,43.70
2019-02-15T14:10:13.547Z,43.72
2019-02-15T14:12:42.159Z,42.07
2019-02-15T14:15:12.223Z,41.13
2019-02-15T14:17:44.827Z,41.34
2019-02-15T14:20:13.612Z,44.08
2019-02-15T14:22:42.219Z,41.30
2019-02-15T14:25:12.920Z,41.17
2019-02-15T14:27:41.517Z,41.56
2019-02-15T14:30:12.351Z,40.84
2019-02-15T14:32:40.949Z,41.20
2019-02-15T14:35:10.976Z,40.51
2019-02-15T14:37:39.572Z,40.74
2019-02-15T14:40:10.341Z,40.19
2019-02-15T14:42:38.949Z,39.75
2019-02-15T14:45:09.865Z,39.84
2019-02-15T14:47:38.460Z,39.83
2019-02-15T14:50:08.759Z,40.39
2019-02-15T14:52:37.350Z,39.87
2019-02-15T14:55:07.611Z,42.53
2019-02-15T14:57:36.186Z,39.31
2019-02-15T15:00:12.251Z,39.31
2019-02-15T15:02:40.904Z,39.21
2019-02-15T15:05:12.673Z,38.98
2019-02-15T15:07:41.263Z,39.16
2019-02-15T15:10:10.920Z,38.45
2019-02-15T15:12:39.511Z,38.18
2019-02-15T15:15:13.919Z,38.18
2019-02-15T15:17:42.510Z,38.56
2019-02-15T15:20:12.821Z,38.48
2019-02-15T15:22:41.408Z,38.33
2019-02-15T15:25:12.523Z,38.21
2019-02-15T15:27:41.184Z,38.21
2019-02-15T15:30:12.977Z,37.82
2019-02-15T15:32:41.570Z,38.83
2019-02-15T15:35:11.822Z,39.24
2019-02-15T15:37:40.413Z,37.82
2019-02-15T15:40:14.054Z,37.75
2019-02-15T15:42:42.666Z,37.98
2019-02-15T15:45:14.842Z,37.28
2019-02-15T15:47:43.439Z,37.68
2019-02-15T15:50:13.185Z,38.13
2019-02-15T15:52:41.775Z,37.39
2019-02-15T15:55:13.082Z,37.26
2019-02-15T15:57:41.670Z,39.00
2019-02-15T16:00:15.556Z,36.72
2019-02-15T16:02:44.146Z,37.26
2019-02-15T16:05:13.393Z,38.12
2019-02-15T16:07:43.651Z,37.74
2019-02-15T16:10:14.128Z,38.61
2019-02-15T16:12:42.718Z,39.54
2019-02-15T16:15:12.916Z,39.12
2019-02-15T16:17:42.060Z,38.46
2019-02-15T16:20:12.187Z,39.91
2019-02-15T16:22:40.760Z,39.64
2019-02-15T16:25:10.911Z,40.12
2019-02-15T16:27:39.510Z,40.75
2019-02-15T16:30:11.590Z,40.09
2019-02-15T16:32:40.189Z,39.21
2019-02-15T16:35:09.549Z,39.46
2019-02-15T16:37:38.156Z,40.87
2019-02-15T16:40:11.761Z,41.89
2019-02-15T16:42:40.074Z,41.74
2019-02-15T16:45:11.732Z,42.55
2019-02-15T16:47:40.332Z,43.51
2019-02-15T16:50:09.277Z,46.13
2019-02-15T16:52:37.879Z,49.26
2019-02-15T16:55:12.762Z,50.97
2019-02-15T16:57:38.477Z,51.25
2019-02-15T17:00:09.668Z,50.31
2019-02-15T17:02:38.288Z,51.09
2019-02-15T17:05:07.195Z,53.96
2019-02-15T17:07:35.869Z,54.26
2019-02-15T17:10:06.562Z,54.33
2019-02-15T17:12:35.162Z,54.39
2019-02-15T17:15:03.899Z,55.65
2019-02-15T17:17:32.499Z,56.41
2019-02-15T17:20:01.091Z,55.84
2019-02-15T17:22:29.681Z,54.82
2019-02-15T17:24:58.304Z,53.86
2019-02-15T17:27:26.890Z,54.23
2019-02-15T17:29:55.484Z,54.77
2019-02-15T17:32:24.140Z,53.83
2019-02-15T17:34:53.792Z,55.25
2019-02-15T17:37:22.396Z,55.68
2019-02-15T17:39:51.030Z,55.40
2019-02-15T17:42:19.611Z,55.18
2019-02-15T17:44:48.226Z,55.66
2019-02-15T17:47:16.822Z,56.20
2019-02-15T17:49:45.530Z,57.21
2019-02-15T17:52:14.117Z,58.38
2019-02-15T17:54:42.740Z,59.42
2019-02-15T17:57:11.922Z,59.00
2019-02-15T17:59:40.580Z,58.57
2019-02-15T18:02:10.231Z,58.48
2019-02-15T18:04:38.889Z,59.25
2019-02-15T18:07:10.108Z,59.90
2019-02-15T18:09:38.701Z,59.85
2019-02-15T18:12:07.798Z,59.92
2019-02-15T18:14:36.385Z,60.43
2019-02-15T18:17:05.121Z,60.59
2019-02-15T18:19:33.746Z,59.71
2019-02-15T18:22:03.038Z,58.83
2019-02-15T18:24:31.828Z,59.22
2019-02-15T18:27:00.425Z,59.91
2019-02-15T18:29:29.112Z,60.60
2019-02-15T18:31:57.727Z,60.86
2019-02-15T18:34:26.363Z,61.20
2019-02-15T18:36:54.973Z,62.84
2019-02-15T18:39:23.562Z,63.19
2019-02-15T18:41:52.244Z,62.40
2019-02-15T18:44:20.871Z,63.04
2019-02-15T18:46:49.465Z,62.66
2019-02-15T18:49:19.620Z,62.07
2019-02-15T18:51:48.415Z,63.36
2019-02-15T18:54:17.003Z,63.95
2019-02-15T18:56:45.585Z,63.91
2019-02-15T18:59:14.171Z,63.73
2019-02-15T19:01:42.749Z,64.50
2019-02-15T19:04:11.351Z,64.53
2019-02-15T19:06:39.950Z,64.39
2019-02-15T19:09:09.597Z,65.17
2019-02-15T19:11:38.173Z,64.94
2019-02-15T19:14:07.830Z,64.45
2019-02-15T19:16:36.460Z,64.32
2019-02-15T19:19:05.045Z,64.95
2019-02-15T19:21:33.633Z,65.15
2019-02-15T19:24:02.226Z,65.26
2019-02-15T19:26:30.824Z,65.07
2019-02-15T19:28:59.406Z,65.68
2019-02-15T19:31:27.989Z,65.39
2019-02-15T19:33:56.623Z,65.76
2019-02-15T19:36:25.239Z,65.59
2019-02-15T19:38:53.823Z,65.98
2019-02-15T19:41:22.419Z,65.46
2019-02-15T19:43:51.000Z,65.45
2019-02-15T19:46:19.595Z,65.76
2019-02-15T19:48:48.227Z,66.45
2019-02-15T19:51:18.529Z,66.00
2019-02-15T19:53:47.114Z,65.93
2019-02-15T19:56:15.697Z,66.27
2019-02-15T19:58:44.347Z,65.69
2019-02-15T20:01:13.532Z,66.18
2019-02-15T20:03:42.123Z,66.43
2019-02-15T20:06:11.142Z,66.06
2019-02-15T20:08:39.730Z,65.92
2019-02-15T20:11:09.293Z,66.11
2019-02-15T20:13:37.893Z,66.05
2019-02-15T20:16:07.315Z,65.72
2019-02-15T20:18:35.909Z,66.25
2019-02-15T20:21:04.586Z,66.50
2019-02-15T20:23:33.219Z,66.44
2019-02-15T20:26:01.867Z,66.23
2019-02-15T20:28:30.457Z,65.90
2019-02-15T20:31:01.754Z,65.73
2019-02-15T20:33:30.341Z,66.15
2019-02-15T20:35:58.961Z,67.08
2019-02-15T20:38:28.287Z,66.98
2019-02-15T20:40:57.001Z,66.58
2019-02-15T20:43:25.613Z,66.79
2019-02-15T20:45:54.225Z,66.49
2019-02-15T20:48:22.855Z,67.19
2019-02-15T20:50:51.489Z,68.06
2019-02-15T20:53:20.125Z,68.64
2019-02-15T20:55:48.770Z,68.76
2019-02-15T20:58:17.362Z,68.72
2019-02-15T21:00:46.126Z,68.48
2019-02-15T21:03:14.911Z,68.16
2019-02-15T21:05:43.526Z,67.97
2019-02-15T21:08:12.104Z,68.40
2019-02-15T21:10:40.690Z,68.04
2019-02-15T21:13:09.525Z,67.97
2019-02-15T21:15:38.147Z,68.54
2019-02-15T21:18:07.222Z,68.54
2019-02-15T21:20:35.949Z,68.75
2019-02-15T21:23:04.532Z,68.26
2019-02-15T21:25:33.163Z,67.97
2019-02-15T21:28:01.748Z,68.22
2019-02-15T21:30:30.384Z,69.45
2019-02-15T21:32:59.022Z,69.93
2019-02-15T21:35:27.638Z,69.81
2019-02-15T21:37:56.235Z,70.33
2019-02-15T21:40:24.820Z,70.76
2019-02-15T21:42:53.415Z,69.84
2019-02-15T21:45:22.036Z,70.31
2019-02-15T21:47:50.630Z,70.56
2019-02-15T21:50:19.220Z,70.29
2019-02-15T21:52:47.991Z,70.37
2019-02-15T21:55:16.928Z,70.20
2019-02-15T21:57:45.606Z,69.61
2019-02-15T22:00:20.093Z,70.11
2019-02-15T22:02:48.687Z,69.91
2019-02-15T22:05:17.534Z,68.70
2019-02-15T22:07:46.147Z,68.64
2019-02-15T22:10:14.753Z,70.23
2019-02-15T22:12:43.345Z,71.08
2019-02-15T22:15:14.853Z,71.26
2019-02-15T22:17:43.442Z,71.45
2019-02-15T22:20:25.994Z,70.82
2019-02-15T22:22:47.344Z,70.92
2019-02-15T22:25:15.928Z,71.02
2019-02-15T22:27:45.812Z,70.99
2019-02-15T22:30:16.977Z,70.50
2019-02-15T22:32:45.635Z,70.71
2019-02-15T22:35:14.234Z,71.11
2019-02-15T22:37:43.016Z,71.33
2019-02-15T22:40:31.555Z,71.05
2019-02-15T22:43:08.553Z,70.55
2019-02-15T22:45:37.136Z,70.36
2019-02-15T22:48:05.738Z,70.13
2019-02-15T22:50:36.365Z,69.57
2019-02-15T22:53:04.628Z,69.50
2019-02-15T22:55:33.221Z,69.41
2019-02-15T22:58:01.806Z,69.18
2019-02-15T23:00:50.259Z,69.01
2019-02-15T23:03:20.907Z,69.17
2019-02-15T23:05:49.502Z,69.16
2019-02-15T23:08:18.090Z,69.28
2019-02-15T23:10:47.048Z,69.53
2019-02-15T23:13:15.632Z,69.59
2019-02-15T23:15:44.212Z,69.96
2019-02-15T23:18:12.798Z,69.98
2019-02-15T23:20:45.221Z,71.20
2019-02-15T23:23:11.738Z,70.65
2019-02-15T23:25:40.327Z,70.68
2019-02-15T23:28:09.437Z,70.73
2019-02-15T23:30:40.525Z,71.12
2019-02-15T23:33:10.208Z,71.96
2019-02-15T23:35:38.860Z,71.27
2019-02-15T23:38:07.728Z,71.19
2019-02-15T23:40:36.310Z,70.47
2019-02-15T23:43:04.901Z,70.68
2019-02-15T23:45:33.488Z,71.02
2019-02-15T23:48:02.069Z,71.13
2019-02-15T23:50:30.654Z,71.02
2019-02-15T23:52:59.237Z,71.03
2019-02-15T23:55:27.826Z,70.38
2019-02-15T23:57:56.412Z,70.30
